createdAt,value
2022-10-03T00:02:19.227Z,101366.16
2022-10-03T00:05:37.097Z,101374.91
2022-10-03T00:09:15.318Z,101382.75
2022-10-03T00:12:38.613Z,101394.38
2022-10-03T00:16:05.501Z,101391.63
2022-10-03T00:19:22.333Z,101394.09
2022-10-03T00:22:47.242Z,101390.53
2022-10-03T00:26:28.354Z,101393.19
2022-10-03T00:29:36.735Z,101394.88
2022-10-03T00:32:53.241Z,101402.09
2022-10-03T00:36:01.170Z,101399.50
2022-10-03T00:39:22.481Z,101403.22
2022-10-03T00:42:52.343Z,101411.22
2022-10-03T00:46:30.895Z,101406.75
2022-10-03T00:49:57.642Z,101409.59
2022-10-03T00:53:20.672Z,101409.44
2022-10-03T00:56:56.935Z,101411.16
2022-10-03T01:00:24.690Z,101413.94
2022-10-03T01:03:28.949Z,101412.97
2022-10-03T01:06:45.955Z,101421.69
2022-10-03T01:10:23.494Z,101407.38
2022-10-03T01:13:56.444Z,101409.28
2022-10-03T01:17:14.250Z,101418.38
2022-10-03T01:20:54.450Z,101417.66
2022-10-03T01:24:10.937Z,101413.38
2022-10-03T01:27:18.573Z,101413.22
2022-10-03T01:30:22.910Z,101423.06
2022-10-03T01:33:33.526Z,101426.78
2022-10-03T01:36:48.317Z,101424.25
2022-10-03T01:39:59.834Z,101440.09
2022-10-03T01:43:34.940Z,101432.16
2022-10-03T01:47:08.500Z,101435.72
2022-10-03T01:50:53.593Z,101441.88
2022-10-03T01:54:24.566Z,101452.50
2022-10-03T01:57:40.954Z,101447.44
2022-10-03T02:00:56.478Z,101457.22
2022-10-03T02:04:06.742Z,101453.56
2022-10-03T02:07:27.009Z,101444.63
2022-10-03T02:10:33.928Z,101448.03
2022-10-03T02:13:35.243Z,101451.56
2022-10-03T02:16:44.753Z,101455.91
2022-10-03T02:20:00.226Z,101459.38
2022-10-03T02:23:02.249Z,101459.38
2022-10-03T02:26:31.539Z,101459.31
2022-10-03T02:29:55.941Z,101466.53
2022-10-03T02:33:35.880Z,101459.63
2022-10-03T02:37:14.537Z,101454.41
2022-10-03T02:40:28.135Z,101457.13
2022-10-03T02:43:54.500Z,101457.03
2022-10-03T02:47:19.598Z,101457.84
2022-10-03T02:51:05.375Z,101449.03
2022-10-03T02:54:41.180Z,101440.25
2022-10-03T02:58:12.093Z,101443.03
2022-10-03T03:01:31.413Z,101437.94
2022-10-03T03:05:14.493Z,101433.59
2022-10-03T03:09:00.880Z,101438.97
2022-10-03T03:12:41.432Z,101437.41
2022-10-03T03:16:04.445Z,101441.97
2022-10-03T03:19:28.624Z,101435.97
2022-10-03T03:22:41.886Z,101439.59
2022-10-03T03:26:11.995Z,101448.38
2022-10-03T03:29:27.718Z,101453.66
2022-10-03T03:32:39.937Z,101461.59
2022-10-03T03:36:15.336Z,101472.19
2022-10-03T03:39:49.900Z,101473.09
2022-10-03T03:43:27.866Z,101481.97
2022-10-03T03:47:03.455Z,101477.72
2022-10-03T03:50:07.758Z,101479.59
2022-10-03T03:53:28.031Z,101474.41
2022-10-03T03:56:51.154Z,101483.22
2022-10-03T03:59:55.477Z,101482.34
2022-10-03T04:03:15.190Z,101477.16
2022-10-03T04:06:36.376Z,101479.16
2022-10-03T04:10:15.282Z,101482.84
2022-10-03T04:13:41.783Z,101477.78
2022-10-03T04:17:33.855Z,101486.53
2022-10-03T04:20:59.887Z,101493.75
2022-10-03T04:24:20.696Z,101490.31
2022-10-03T04:27:28.178Z,101482.44
2022-10-03T04:30:57.181Z,101499.22
2022-10-03T04:34:07.664Z,101504.50
2022-10-03T04:37:20.054Z,101501.31
2022-10-03T04:41:04.857Z,101513.09
2022-10-03T04:44:32.700Z,101504.47
2022-10-03T04:48:01.016Z,101515.97
2022-10-03T04:51:27.620Z,101515.97
2022-10-03T04:54:54.702Z,101511.50
2022-10-03T04:58:04.867Z,101505.19
2022-10-03T05:01:30.249Z,101503.56
2022-10-03T05:04:58.358Z,101506.41
2022-10-03T05:08:29.086Z,101511.72
2022-10-03T05:11:36.406Z,101500.41
2022-10-03T05:14:44.920Z,101505.69
2022-10-03T05:18:04.857Z,101512.75
2022-10-03T05:21:34.089Z,101516.34
2022-10-03T05:25:01.963Z,101525.19
2022-10-03T05:28:38.858Z,101523.28
2022-10-03T05:32:09.673Z,101533.78
2022-10-03T05:35:28.766Z,101542.50
2022-10-03T05:38:40.680Z,101538.22
2022-10-03T05:42:17.892Z,101547.97
2022-10-03T05:45:26.182Z,101544.44
2022-10-03T05:48:47.488Z,101544.44
2022-10-03T05:52:03.817Z,101552.28
2022-10-03T05:55:17.362Z,101552.34
2022-10-03T05:58:35.853Z,101558.50
2022-10-03T06:02:19.402Z,101560.28
2022-10-03T06:05:32.311Z,101574.44
2022-10-03T06:08:49.527Z,101567.41
2022-10-03T06:12:10.032Z,101577.81
2022-10-03T06:15:17.802Z,101589.13
2022-10-03T06:18:56.325Z,101591.59
2022-10-03T06:22:18.225Z,101596.72
2022-10-03T06:25:45.853Z,101608.06
2022-10-03T06:29:15.397Z,101614.38
2022-10-03T06:32:34.982Z,101608.31
2022-10-03T06:36:14.333Z,101614.53
2022-10-03T06:39:54.496Z,101612.47
2022-10-03T06:43:11.154Z,101616.06
2022-10-03T06:46:24.610Z,101615.88
2022-10-03T06:49:49.411Z,101618.53
2022-10-03T06:53:12.603Z,101614.06
2022-10-03T06:56:50.162Z,101612.31
2022-10-03T07:00:21.437Z,101611.34
2022-10-03T07:03:44.697Z,101617.31
2022-10-03T07:07:07.364Z,101617.31
2022-10-03T07:10:38.050Z,101618.84
2022-10-03T07:14:08.130Z,101624.78
2022-10-03T07:17:25.150Z,101626.50
2022-10-03T07:20:54.679Z,101618.34
2022-10-03T07:24:22.552Z,101619.88
2022-10-03T07:27:51.120Z,101621.56
2022-10-03T07:31:14.359Z,101614.38
2022-10-03T07:34:47.641Z,101620.28
2022-10-03T07:38:10.957Z,101635.06
2022-10-03T07:41:31.577Z,101644.56
2022-10-03T07:45:06.478Z,101653.06
2022-10-03T07:48:13.849Z,101645.91
2022-10-03T07:51:42.319Z,101650.19
2022-10-03T07:55:09.446Z,101659.78
2022-10-03T07:58:31.732Z,101660.63
2022-10-03T08:02:05.135Z,101659.66
2022-10-03T08:05:25.086Z,101657.69
2022-10-03T08:08:50.539Z,101650.50
2022-10-03T08:12:15.812Z,101652.50
2022-10-03T08:15:32.801Z,101650.75
2022-10-03T08:19:11.173Z,101659.59
2022-10-03T08:22:38.501Z,101649.38
2022-10-03T08:26:08.377Z,101650.38
2022-10-03T08:29:19.826Z,101648.94
2022-10-03T08:32:50.618Z,101653.13
2022-10-03T08:36:13.858Z,101656.16
2022-10-03T08:39:41.836Z,101661.91
2022-10-03T08:43:31.078Z,101649.22
2022-10-03T08:47:10.609Z,101651.09
2022-10-03T08:50:33.447Z,101646.41
2022-10-03T08:54:13.473Z,101639.78
2022-10-03T08:57:26.439Z,101644.63
2022-10-03T09:00:53.739Z,101641.09
2022-10-03T09:04:28.450Z,101640.00
2022-10-03T09:07:35.903Z,101634.75
2022-10-03T09:10:47.257Z,101637.75
2022-10-03T09:14:45.914Z,101639.72
2022-10-03T09:18:15.277Z,101638.19
2022-10-03T09:21:37.297Z,101638.81
2022-10-03T09:24:56.628Z,101641.63
2022-10-03T09:28:25.491Z,101647.06
2022-10-03T09:32:02.527Z,101647.88
2022-10-03T09:35:42.204Z,101646.31
2022-10-03T09:39:05.752Z,101644.59
2022-10-03T09:42:36.363Z,101645.38
2022-10-03T09:45:43.853Z,101646.38
2022-10-03T09:49:07.049Z,101650.56
2022-10-03T09:52:51.237Z,101649.41
2022-10-03T09:56:29.970Z,101652.50
2022-10-03T10:00:22.399Z,101652.84
2022-10-03T10:03:46.672Z,101649.34
2022-10-03T10:07:16.133Z,101644.88
2022-10-03T10:10:23.436Z,101647.13
2022-10-03T10:14:08.571Z,101648.84
2022-10-03T10:17:27.934Z,101637.22
2022-10-03T10:20:53.961Z,101637.19
2022-10-03T10:24:23.054Z,101638.81
2022-10-03T10:28:02.291Z,101633.59
2022-10-03T10:31:22.598Z,101640.19
2022-10-03T10:34:58.628Z,101638.81
2022-10-03T10:38:25.895Z,101634.75
2022-10-03T10:42:07.714Z,101634.53
2022-10-03T10:45:48.349Z,101632.53
2022-10-03T10:49:16.753Z,101637.16
2022-10-03T10:52:47.275Z,101629.34
2022-10-03T10:56:06.958Z,101632.88
2022-10-03T10:59:30.400Z,101629.00
2022-10-03T11:03:16.172Z,101630.69
2022-10-03T11:06:59.332Z,101631.53
2022-10-03T11:10:00.636Z,101623.53
2022-10-03T11:13:41.331Z,101632.72
2022-10-03T11:17:16.822Z,101629.25
2022-10-03T11:20:46.173Z,101618.63
2022-10-03T11:24:06.512Z,101622.47
2022-10-03T11:27:40.037Z,101614.34
2022-10-03T11:31:29.205Z,101609.53
2022-10-03T11:35:18.621Z,101616.31
2022-10-03T11:38:40.553Z,101608.31
2022-10-03T11:42:10.882Z,101608.19
2022-10-03T11:45:26.017Z,101602.69
2022-10-03T11:48:39.567Z,101600.13
2022-10-03T11:51:53.900Z,101606.34
2022-10-03T11:55:04.546Z,101598.91
2022-10-03T11:58:41.216Z,101604.91
2022-10-03T12:02:13.313Z,101595.25
2022-10-03T12:05:36.757Z,101589.91
2022-10-03T12:08:57.278Z,101590.88
2022-10-03T12:12:10.670Z,101583.63
2022-10-03T12:15:23.299Z,101587.78
2022-10-03T12:18:40.081Z,101578.47
2022-10-03T12:21:54.538Z,101575.53
2022-10-03T12:25:06.340Z,101575.34
2022-10-03T12:28:24.155Z,101570.63
2022-10-03T12:31:36.010Z,101569.03
2022-10-03T12:34:42.567Z,101561.34
2022-10-03T12:38:01.604Z,101553.56
2022-10-03T12:41:25.691Z,101557.75
2022-10-03T12:44:40.776Z,101552.19
2022-10-03T12:47:56.047Z,101547.66
2022-10-03T12:51:07.264Z,101546.63
2022-10-03T12:54:45.303Z,101542.09
2022-10-03T12:58:20.565Z,101541.44
2022-10-03T13:01:34.998Z,101545.66
2022-10-03T13:04:47.637Z,101545.53
2022-10-03T13:08:30.705Z,101542.69
2022-10-03T13:11:55.380Z,101536.78
2022-10-03T13:15:18.768Z,101539.25
2022-10-03T13:18:33.273Z,101534.88
2022-10-03T13:21:48.015Z,101539.94
2022-10-03T13:25:15.441Z,101537.63
2022-10-03T13:28:33.629Z,101530.56
2022-10-03T13:31:39.478Z,101529.63
2022-10-03T13:35:51.131Z,101530.56
2022-10-03T13:39:11.419Z,101528.91
2022-10-03T13:42:19.233Z,101523.47
2022-10-03T13:45:26.277Z,101519.69
2022-10-03T13:48:28.212Z,101517.81
2022-10-03T13:52:02.250Z,101514.41
2022-10-03T13:55:10.244Z,101519.19
2022-10-03T13:58:32.782Z,101519.72
2022-10-03T14:02:05.145Z,101513.63
2022-10-03T14:05:18.997Z,101514.41
2022-10-03T14:08:55.460Z,101507.38
2022-10-03T14:12:09.112Z,101512.78
2022-10-03T14:15:26.880Z,101505.72
2022-10-03T14:18:37.889Z,101499.50
2022-10-03T14:21:50.161Z,101497.16
2022-10-03T14:25:06.374Z,101488.25
2022-10-03T14:28:10.449Z,101495.88
2022-10-03T14:31:20.252Z,101490.09
2022-10-03T14:34:34.294Z,101486.47
2022-10-03T14:38:13.385Z,101485.75
2022-10-03T14:41:26.422Z,101487.09
2022-10-03T14:44:54.139Z,101484.66
2022-10-03T14:48:24.150Z,101480.47
2022-10-03T14:51:34.570Z,101489.19
2022-10-03T14:54:39.234Z,101491.75
2022-10-03T14:58:08.727Z,101494.81
2022-10-03T15:01:15.874Z,101486.81
2022-10-03T15:04:28.116Z,101489.75
2022-10-03T15:07:38.989Z,101484.44
2022-10-03T15:10:41.475Z,101479.75
2022-10-03T15:13:50.888Z,101481.38
2022-10-03T15:16:55.061Z,101480.75
2022-10-03T15:19:58.946Z,101478.97
2022-10-03T15:23:02.439Z,101478.31
2022-10-03T15:26:12.159Z,101482.25
2022-10-03T15:29:17.606Z,101484.28
2022-10-03T15:32:33.702Z,101482.56
2022-10-03T15:35:37.761Z,101484.53
2022-10-03T15:38:42.402Z,101482.09
2022-10-03T15:41:52.911Z,101489.94
2022-10-03T15:45:06.387Z,101482.28
2022-10-03T15:48:15.639Z,101479.72
2022-10-03T15:51:20.001Z,101476.13
2022-10-03T15:54:25.918Z,101473.59
2022-10-03T15:57:34.850Z,101476.13
2022-10-03T16:00:37.718Z,101469.06
2022-10-03T16:03:59.729Z,101465.59
2022-10-03T16:07:09.976Z,101462.94
2022-10-03T16:10:20.897Z,101470.59
2022-10-03T16:13:36.738Z,101468.09
2022-10-03T16:16:48.104Z,101471.78
2022-10-03T16:19:56.228Z,101474.34
2022-10-03T16:22:59.958Z,101478.97
2022-10-03T16:26:05.886Z,101476.38
2022-10-03T16:29:22.468Z,101468.38
2022-10-03T16:32:28.117Z,101464.19
2022-10-03T16:35:44.337Z,101460.69
2022-10-03T16:38:59.186Z,101452.00
2022-10-03T16:42:12.496Z,101466.16
2022-10-03T16:45:44.158Z,101465.50
2022-10-03T16:49:04.345Z,101457.75
2022-10-03T16:52:12.143Z,101452.59
2022-10-03T16:55:21.102Z,101457.41
2022-10-03T16:58:28.735Z,101449.66
2022-10-03T17:01:36.418Z,101449.16
2022-10-03T17:04:41.998Z,101455.88
2022-10-03T17:07:47.518Z,101464.16
2022-10-03T17:10:57.875Z,101464.53
2022-10-03T17:14:03.640Z,101462.25
2022-10-03T17:17:17.236Z,101457.16
2022-10-03T17:20:38.377Z,101450.50
2022-10-03T17:24:01.739Z,101463.91
2022-10-03T17:27:14.561Z,101449.97
2022-10-03T17:30:37.243Z,101450.88
2022-10-03T17:33:47.323Z,101444.03
2022-10-03T17:37:15.068Z,101442.34
2022-10-03T17:40:20.826Z,101437.25
2022-10-03T17:43:36.404Z,101442.28
2022-10-03T17:46:50.977Z,101433.69
2022-10-03T17:50:05.699Z,101432.38
2022-10-03T17:53:18.786Z,101440.56
2022-10-03T17:56:22.888Z,101427.69
2022-10-03T17:59:50.583Z,101437.53
2022-10-03T18:03:15.437Z,101435.91
2022-10-03T18:06:28.896Z,101434.41
2022-10-03T18:09:40.470Z,101435.38
2022-10-03T18:12:43.473Z,101434.66
2022-10-03T18:16:15.485Z,101436.50
2022-10-03T18:19:41.839Z,101439.69
2022-10-03T18:22:48.915Z,101436.59
2022-10-03T18:26:20.975Z,101437.16
2022-10-03T18:29:49.293Z,101430.41
2022-10-03T18:32:53.446Z,101432.50
2022-10-03T18:35:56.403Z,101437.31
2022-10-03T18:39:03.502Z,101437.53
2022-10-03T18:42:08.936Z,101440.97
2022-10-03T18:45:20.720Z,101434.72
2022-10-03T18:48:37.671Z,101429.47
2022-10-03T18:51:43.182Z,101435.63
2022-10-03T18:54:56.444Z,101430.41
2022-10-03T18:58:06.259Z,101430.50
2022-10-03T19:01:25.153Z,101429.91
2022-10-03T19:05:08.212Z,101427.28
2022-10-03T19:08:42.406Z,101431.88
2022-10-03T19:11:48.249Z,101424.03
2022-10-03T19:15:27.441Z,101420.53
2022-10-03T19:18:42.869Z,101425.97
2022-10-03T19:21:48.084Z,101434.16
2022-10-03T19:24:59.257Z,101433.38
2022-10-03T19:28:12.981Z,101435.00
2022-10-03T19:31:21.033Z,101428.94
2022-10-03T19:34:35.722Z,101431.88
2022-10-03T19:37:48.104Z,101426.59
2022-10-03T19:41:17.962Z,101422.38
2022-10-03T19:44:24.018Z,101420.81
2022-10-03T19:47:36.800Z,101433.13
2022-10-03T19:50:38.434Z,101423.66
2022-10-03T19:53:42.708Z,101424.66
2022-10-03T19:56:44.233Z,101430.88
2022-10-03T19:59:53.451Z,101433.78
2022-10-03T20:03:11.476Z,101428.75
2022-10-03T20:06:18.957Z,101433.25
2022-10-03T20:09:26.151Z,101427.25
2022-10-03T20:12:30.765Z,101431.97
2022-10-03T20:15:43.087Z,101423.28
2022-10-03T20:18:48.467Z,101419.88
2022-10-03T20:22:02.125Z,101413.72
2022-10-03T20:25:21.300Z,101418.13
2022-10-03T20:28:45.139Z,101418.88
2022-10-03T20:31:47.977Z,101411.06
2022-10-03T20:34:57.189Z,101409.31
2022-10-03T20:38:13.586Z,101405.06
2022-10-03T20:41:44.605Z,101407.13
2022-10-03T20:45:02.298Z,101420.50
2022-10-03T20:48:08.823Z,101409.03
2022-10-03T20:51:23.781Z,101408.25
2022-10-03T20:54:33.145Z,101408.28
2022-10-03T20:58:16.235Z,101401.25
2022-10-03T21:01:22.675Z,101398.56
2022-10-03T21:04:38.242Z,101395.97
2022-10-03T21:07:50.087Z,101410.28
2022-10-03T21:11:11.731Z,101409.63
2022-10-03T21:14:19.907Z,101410.53
2022-10-03T21:17:22.094Z,101405.22
2022-10-03T21:20:31.314Z,101401.56
2022-10-03T21:23:38.422Z,101390.16
2022-10-03T21:26:46.898Z,101395.66
2022-10-03T21:29:54.901Z,101394.69
2022-10-03T21:33:09.638Z,101394.81
2022-10-03T21:36:17.223Z,101397.56
2022-10-03T21:39:44.969Z,101384.38
2022-10-03T21:43:24.972Z,101395.00
2022-10-03T21:46:45.012Z,101392.53
2022-10-03T21:49:52.628Z,101382.97
2022-10-03T21:52:58.942Z,101391.78
2022-10-03T21:56:08.903Z,101387.44
2022-10-03T21:59:27.957Z,101384.94
2022-10-03T22:02:44.204Z,101371.75
2022-10-03T22:06:06.520Z,101371.72
2022-10-03T22:09:13.494Z,101362.84
2022-10-03T22:12:16.832Z,101356.63
2022-10-03T22:15:46.503Z,101358.41
2022-10-03T22:19:07.159Z,101360.06
2022-10-03T22:22:20.724Z,101358.41
2022-10-03T22:25:47.751Z,101355.81
2022-10-03T22:28:52.010Z,101351.59
2022-10-03T22:32:19.478Z,101350.75
2022-10-03T22:35:23.620Z,101340.25
2022-10-03T22:38:29.517Z,101357.00
2022-10-03T22:41:31.306Z,101343.78
2022-10-03T22:44:38.059Z,101339.34
2022-10-03T22:47:40.779Z,101337.56
2022-10-03T22:50:43.109Z,101341.13
2022-10-03T22:53:56.996Z,101340.09
2022-10-03T22:57:01.574Z,101329.41
2022-10-03T23:00:11.034Z,101322.34
2022-10-03T23:03:17.915Z,101314.38
2022-10-03T23:06:48.113Z,101319.63
2022-10-03T23:10:02.951Z,101319.72
2022-10-03T23:13:17.074Z,101320.53
2022-10-03T23:16:37.001Z,101330.28
2022-10-03T23:20:08.578Z,101326.78
2022-10-03T23:23:21.807Z,101319.97
2022-10-03T23:26:39.210Z,101323.50
2022-10-03T23:29:40.652Z,101305.91
2022-10-03T23:32:48.224Z,101310.44
2022-10-03T23:35:50.533Z,101307.88
2022-10-03T23:38:54.118Z,101306.13
2022-10-03T23:41:58.908Z,101312.28
2022-10-03T23:45:10.509Z,101315.81
2022-10-03T23:48:15.862Z,101319.31
2022-10-03T23:51:22.125Z,101314.06
2022-10-03T23:54:24.907Z,101307.03
2022-10-03T23:57:40.256Z,101302.72
